createdAt,value
2018-05-04T08:23:20.718Z,19.10
2018-05-04T08:25:48.186Z,16.60
2018-05-04T08:28:15.656Z,16.73
2018-05-04T08:30:43.173Z,14.27
2018-05-04T08:33:10.645Z,15.03
2018-05-04T08:35:38.104Z,14.93
2018-05-04T08:38:05.559Z,13.73
2018-05-04T08:40:33.134Z,16.57
2018-05-04T08:43:00.908Z,13.93
2018-05-04T08:45:28.402Z,13.40
2018-05-04T08:47:55.914Z,14.37
2018-05-04T08:50:23.372Z,12.63
2018-05-04T08:52:50.830Z,14.07
2018-05-04T08:55:18.287Z,14.73
2018-05-04T08:57:46.622Z,14.97
2018-05-04T09:00:14.094Z,16.50
2018-05-04T09:02:41.549Z,14.70
2018-05-04T09:05:09.090Z,15.03
2018-05-04T09:07:36.479Z,16.33
2018-05-04T09:10:04.716Z,14.53
2018-05-04T09:12:32.194Z,13.93
2018-05-04T09:15:00.401Z,15.07
2018-05-04T09:17:27.854Z,14.80
2018-05-04T09:19:55.395Z,14.70
2018-05-04T09:22:23.657Z,12.60
2018-05-04T09:24:51.138Z,12.87
2018-05-04T09:27:18.590Z,14.57
2018-05-04T09:29:46.053Z,15.37
2018-05-04T09:32:13.507Z,13.00
2018-05-04T09:34:40.975Z,14.30
2018-05-04T09:37:08.418Z,13.83
2018-05-04T09:39:35.882Z,12.63
2018-05-04T09:42:03.329Z,14.67
2018-05-04T09:44:30.793Z,13.63
2018-05-04T09:46:58.241Z,14.07
2018-05-04T09:49:25.703Z,14.47
2018-05-04T09:51:53.225Z,16.73
2018-05-04T09:54:20.691Z,15.63
2018-05-04T09:56:48.173Z,14.57
2018-05-04T09:59:16.419Z,16.20
2018-05-04T10:01:43.886Z,16.03
2018-05-04T10:04:11.384Z,15.33
2018-05-04T10:06:38.852Z,15.77
2018-05-04T10:09:06.371Z,16.23
2018-05-04T10:11:33.823Z,15.60
2018-05-04T10:14:01.286Z,16.53
2018-05-04T10:16:30.870Z,16.10
2018-05-04T10:18:59.217Z,16.77
2018-05-04T10:21:26.665Z,17.07
2018-05-04T10:23:54.132Z,16.30
2018-05-04T10:26:21.645Z,16.83
2018-05-04T10:28:49.163Z,17.07
2018-05-04T10:31:16.611Z,17.60
2018-05-04T10:33:44.066Z,16.17
2018-05-04T10:36:11.541Z,17.03
2018-05-04T10:38:39.152Z,16.03
2018-05-04T10:41:06.524Z,17.87
2018-05-04T10:43:33.972Z,18.97
2018-05-04T10:46:01.423Z,19.10
2018-05-04T10:48:28.879Z,18.23
2018-05-04T10:50:58.740Z,17.83
2018-05-04T10:53:26.200Z,16.57
2018-05-04T10:55:53.694Z,17.50
2018-05-04T10:58:21.171Z,17.70
2018-05-04T11:00:48.622Z,18.17
2018-05-04T11:03:16.106Z,15.60
2018-05-04T11:05:44.353Z,19.00
2018-05-04T11:08:11.839Z,23.17
2018-05-04T11:10:39.345Z,20.43
2018-05-04T11:13:06.799Z,32.63
2018-05-04T11:15:35.015Z,20.83
2018-05-04T11:18:03.257Z,17.83
2018-05-04T11:20:30.732Z,17.20
2018-05-04T11:22:58.185Z,16.83
2018-05-04T11:25:25.763Z,16.53
2018-05-04T11:27:53.144Z,16.70
2018-05-04T11:30:20.609Z,18.10
2018-05-04T11:32:48.079Z,18.00
2018-05-04T11:35:16.316Z,19.30
2018-05-04T11:37:43.785Z,18.10
2018-05-04T11:40:12.073Z,17.40
2018-05-04T11:42:39.574Z,16.27
2018-05-04T11:45:07.040Z,18.10
2018-05-04T11:47:35.298Z,18.53
2018-05-04T11:50:03.538Z,18.57
2018-05-04T11:52:31.032Z,17.20
2018-05-04T11:54:58.546Z,17.90
2018-05-04T11:57:26.020Z,21.97
2018-05-04T11:59:53.493Z,20.10
2018-05-04T12:02:21.003Z,17.43
2018-05-04T12:04:49.212Z,16.40
2018-05-04T12:07:16.658Z,17.90
2018-05-04T12:09:44.992Z,16.80
2018-05-04T12:12:12.454Z,17.83
2018-05-04T12:14:39.910Z,16.23
2018-05-04T12:17:07.374Z,18.37
2018-05-04T12:19:35.604Z,17.80
2018-05-04T12:22:03.125Z,15.37
2018-05-04T12:24:30.993Z,18.03
2018-05-04T12:26:58.437Z,17.37
2018-05-04T12:29:25.957Z,17.43
2018-05-04T12:31:54.143Z,18.00
2018-05-04T12:34:21.655Z,18.80
2018-05-04T12:36:49.117Z,17.87
2018-05-04T12:39:16.594Z,20.30
2018-05-04T12:41:44.043Z,17.13
2018-05-04T12:44:12.285Z,17.90
2018-05-04T12:46:39.914Z,16.57
2018-05-04T12:49:07.383Z,17.17
2018-05-04T12:51:34.907Z,15.50
2018-05-04T12:54:02.364Z,14.30
2018-05-04T12:56:29.834Z,17.37
2018-05-04T12:58:58.069Z,17.13
2018-05-04T13:01:25.554Z,17.53
2018-05-04T13:03:53.020Z,18.13
2018-05-04T13:06:20.550Z,17.47
2018-05-04T13:08:48.034Z,16.30
2018-05-04T13:11:15.517Z,17.63
2018-05-04T13:13:43.742Z,18.80
2018-05-04T13:16:11.197Z,30.87
2018-05-04T13:18:38.671Z,18.60
2018-05-04T13:21:06.206Z,15.47
2018-05-04T13:23:34.439Z,16.30
2018-05-04T13:26:01.917Z,17.00
2018-05-04T13:28:29.367Z,20.80
2018-05-04T13:30:56.823Z,19.53
2018-05-04T13:33:24.619Z,18.87
2018-05-04T13:35:52.713Z,18.90
2018-05-04T13:38:20.176Z,17.27
2018-05-04T13:40:47.661Z,17.40
2018-05-04T13:43:15.108Z,16.27
2018-05-04T13:45:42.604Z,16.97
2018-05-04T13:48:10.100Z,16.63
2018-05-04T13:50:37.550Z,17.80
2018-05-04T13:53:05.014Z,18.90
2018-05-04T13:55:33.284Z,16.73
2018-05-04T13:58:00.830Z,16.77
2018-05-04T14:00:28.396Z,17.30
2018-05-04T14:02:56.828Z,20.20
2018-05-04T14:05:24.336Z,16.33
2018-05-04T14:07:51.808Z,15.20
2018-05-04T14:10:19.286Z,15.63
2018-05-04T14:12:46.796Z,14.77
2018-05-04T14:15:14.193Z,15.97
2018-05-04T14:17:41.676Z,14.10
2018-05-04T14:20:09.149Z,15.53
2018-05-04T14:22:36.664Z,14.00
2018-05-04T14:25:04.110Z,14.03
2018-05-04T14:27:32.331Z,14.30
2018-05-04T14:29:59.833Z,14.40
2018-05-04T14:32:27.515Z,16.87
2018-05-04T14:34:55.191Z,14.83
2018-05-04T14:37:22.598Z,13.87
2018-05-04T14:39:50.710Z,14.47
2018-05-04T14:42:18.948Z,13.60
2018-05-04T14:44:46.416Z,13.40
2018-05-04T14:47:14.642Z,14.30
2018-05-04T14:49:42.902Z,14.77
2018-05-04T14:52:10.470Z,15.33
2018-05-04T14:54:37.935Z,14.47
2018-05-04T14:57:05.495Z,14.00
2018-05-04T14:59:32.992Z,12.90
2018-05-04T15:02:00.504Z,13.57
2018-05-04T15:04:28.015Z,14.63
2018-05-04T15:06:56.293Z,14.23
2018-05-04T15:09:23.751Z,13.50
2018-05-04T15:11:51.315Z,14.80
2018-05-04T15:14:18.707Z,15.50
2018-05-04T15:16:46.169Z,13.83
2018-05-04T15:19:13.628Z,13.30
2018-05-04T15:21:41.193Z,15.93
2018-05-04T15:24:08.642Z,13.13
2018-05-04T15:26:36.099Z,12.87
2018-05-04T15:29:03.554Z,15.37
2018-05-04T15:31:31.045Z,16.03
2018-05-04T15:33:58.524Z,12.83
2018-05-04T15:36:26.880Z,13.23
2018-05-04T15:38:54.344Z,15.13
2018-05-04T15:41:22.582Z,14.50
2018-05-04T15:43:50.057Z,13.53
2018-05-04T15:46:18.294Z,17.50
2018-05-04T15:48:51.462Z,14.33
2018-05-04T15:51:27.526Z,13.50
2018-05-04T15:53:55.018Z,12.33
2018-05-04T15:56:22.540Z,12.57
2018-05-04T15:58:50.042Z,12.90
2018-05-04T16:01:17.595Z,14.80
2018-05-04T16:03:45.864Z,13.93
2018-05-04T16:06:14.188Z,18.87
2018-05-04T16:08:41.824Z,12.20
2018-05-04T16:11:09.601Z,15.10
2018-05-04T16:13:37.505Z,11.93
2018-05-04T16:16:05.082Z,12.10
2018-05-04T16:18:32.715Z,13.13
2018-05-04T16:21:00.190Z,11.57
2018-05-04T16:23:27.687Z,11.93
2018-05-04T16:25:55.256Z,13.30
2018-05-04T16:28:22.748Z,12.93
2018-05-04T16:30:50.994Z,10.67
2018-05-04T16:33:18.480Z,11.87
2018-05-04T16:35:45.958Z,11.77
2018-05-04T16:38:13.545Z,12.20
2018-05-04T16:40:41.013Z,12.43
2018-05-04T16:43:08.532Z,12.27
2018-05-04T16:45:36.745Z,12.27
2018-05-04T16:48:09.826Z,18.17
2018-05-04T16:50:37.319Z,13.83
2018-05-04T16:53:05.567Z,12.87
2018-05-04T16:55:33.073Z,11.83
2018-05-04T16:58:00.537Z,13.40
2018-05-04T17:00:28.027Z,12.93
2018-05-04T17:02:55.491Z,12.23
2018-05-04T17:05:22.950Z,12.40
2018-05-04T17:07:50.502Z,41.17
2018-05-04T17:10:17.971Z,18.20
2018-05-04T17:12:45.472Z,19.90
2018-05-04T17:15:12.931Z,19.83
2018-05-04T17:17:41.461Z,19.70
2018-05-04T17:20:08.912Z,20.30
2018-05-04T17:22:36.402Z,21.17
2018-05-04T17:25:03.862Z,20.97
2018-05-04T17:27:32.115Z,20.97
2018-05-04T17:29:59.575Z,21.00
2018-05-04T17:32:27.833Z,22.43
2018-05-04T17:34:55.317Z,24.20
2018-05-04T17:37:22.878Z,21.63
2018-05-04T17:39:50.314Z,23.00
2018-05-04T17:42:17.786Z,22.30
2018-05-04T17:44:45.249Z,24.27
2018-05-04T17:47:13.561Z,21.90
2018-05-04T17:49:40.974Z,23.57
2018-05-04T17:52:09.212Z,25.00
2018-05-04T17:54:36.659Z,23.90
2018-05-04T17:57:04.898Z,26.10
2018-05-04T17:59:32.889Z,26.67
2018-05-04T18:02:00.358Z,23.60
2018-05-04T18:04:27.846Z,24.30
2018-05-04T18:06:55.327Z,25.17
2018-05-04T18:09:22.782Z,24.47
2018-05-04T18:11:50.838Z,26.00
2018-05-04T18:14:18.313Z,24.47
2018-05-04T18:16:45.773Z,23.07
2018-05-04T18:19:13.253Z,24.30
2018-05-04T18:21:40.714Z,23.50
2018-05-04T18:24:08.275Z,21.33
2018-05-04T18:26:35.730Z,23.30
2018-05-04T18:29:03.990Z,22.90
2018-05-04T18:31:31.465Z,23.07
2018-05-04T18:33:58.921Z,24.07
2018-05-04T18:36:27.145Z,23.10
2018-05-04T18:38:54.606Z,23.03
2018-05-04T18:41:22.074Z,22.50
2018-05-04T18:43:49.545Z,22.63
2018-05-04T18:46:17.016Z,21.93
2018-05-04T18:48:44.554Z,22.27
2018-05-04T18:51:12.006Z,23.33
2018-05-04T18:53:39.494Z,21.00
2018-05-04T18:56:07.719Z,22.47
2018-05-04T18:58:35.440Z,21.47
2018-05-04T19:03:38.382Z,19.90
2018-05-04T19:06:06.609Z,20.43
2018-05-04T19:08:34.182Z,21.50
2018-05-04T19:11:02.387Z,23.40
2018-05-04T19:13:30.643Z,19.37
2018-05-04T19:15:58.092Z,19.60
2018-05-04T19:18:25.541Z,20.00
2018-05-04T19:20:52.994Z,20.70
2018-05-04T19:23:20.458Z,21.13
2018-05-04T19:25:48.673Z,20.80
2018-05-04T19:28:16.149Z,21.83
2018-05-04T19:30:43.621Z,19.37
2018-05-04T19:33:11.863Z,19.97
2018-05-04T19:35:40.751Z,18.43
2018-05-04T19:38:08.212Z,19.63
2018-05-04T19:40:35.672Z,19.77
2018-05-04T19:43:03.132Z,19.87
2018-05-04T19:45:30.585Z,21.27
2018-05-04T19:47:58.040Z,20.40
2018-05-04T19:50:25.510Z,20.87
2018-05-04T19:52:52.978Z,21.27
2018-05-04T19:55:20.463Z,21.67
2018-05-04T19:57:47.918Z,20.00
2018-05-04T20:00:15.374Z,21.17
2018-05-04T20:02:43.707Z,20.47
2018-05-04T20:05:11.166Z,20.70
2018-05-04T20:07:38.656Z,21.00
2018-05-04T20:10:06.126Z,20.87
2018-05-04T20:12:33.589Z,24.17
2018-05-04T20:15:01.120Z,24.13
2018-05-04T20:17:28.582Z,23.77
2018-05-04T20:19:56.036Z,23.47
2018-05-04T20:22:23.518Z,22.50
2018-05-04T20:24:51.005Z,23.10
2018-05-04T20:27:18.462Z,27.73
2018-05-04T20:29:45.922Z,28.27
2018-05-04T20:32:14.162Z,25.27
2018-05-04T20:34:41.650Z,24.67
2018-05-04T20:37:09.104Z,23.43
2018-05-04T20:39:36.589Z,28.60
2018-05-04T20:42:04.068Z,24.47
2018-05-04T20:44:31.558Z,23.30
2018-05-04T20:46:59.039Z,24.00
2018-05-04T20:49:26.520Z,25.30
2018-05-04T20:51:54.030Z,22.87
2018-05-04T20:54:21.440Z,25.20
2018-05-04T20:56:48.899Z,24.90
2018-05-04T20:59:16.358Z,25.00
2018-05-04T21:01:44.577Z,24.90
2018-05-04T21:04:12.049Z,26.83
2018-05-04T21:06:39.503Z,23.87
2018-05-04T21:09:06.964Z,23.10
2018-05-04T21:11:34.431Z,18.80
2018-05-04T21:14:01.989Z,20.57
2018-05-04T21:16:29.406Z,23.47
2018-05-04T21:18:56.879Z,15.17
2018-05-04T21:21:24.346Z,16.53
2018-05-04T21:23:51.877Z,11.23
2018-05-04T21:26:19.377Z,10.70
2018-05-04T21:28:46.824Z,12.43
2018-05-04T21:31:14.284Z,12.03
2018-05-04T21:33:41.750Z,9.00
2018-05-04T21:36:09.223Z,9.43
2018-05-04T21:38:36.681Z,7.90
2018-05-04T21:41:04.898Z,9.73
2018-05-04T21:43:32.393Z,6.90
2018-05-04T21:45:59.845Z,8.77
2018-05-04T21:48:27.301Z,8.80
2018-05-04T21:50:54.838Z,8.30
2018-05-04T21:53:22.346Z,9.60
2018-05-04T21:55:50.582Z,8.17
2018-05-04T21:58:18.840Z,8.60
2018-05-04T22:00:46.301Z,7.70
2018-05-04T22:03:14.540Z,7.47
2018-05-04T22:05:42.020Z,7.70
2018-05-04T22:08:10.244Z,8.57
2018-05-04T22:10:37.710Z,11.97
2018-05-04T22:13:05.971Z,8.40
2018-05-04T22:15:33.448Z,8.77
2018-05-04T22:18:02.151Z,40.00
2018-05-04T22:20:29.609Z,7.00
2018-05-04T22:22:57.069Z,8.80
2018-05-04T22:25:24.523Z,6.57
2018-05-04T22:27:52.758Z,8.43
2018-05-04T22:30:20.222Z,6.87
2018-05-04T22:32:47.782Z,7.17
2018-05-04T22:35:16.069Z,6.57
2018-05-04T22:37:43.536Z,6.53
2018-05-04T22:40:10.995Z,8.00
2018-05-04T22:42:39.462Z,7.47
2018-05-04T22:45:07.025Z,9.93
2018-05-04T22:47:34.577Z,6.87
2018-05-04T22:50:02.113Z,6.93
2018-05-04T22:52:30.363Z,9.07
2018-05-04T22:54:57.860Z,6.40
2018-05-04T22:57:25.321Z,7.70
2018-05-04T22:59:52.793Z,6.63
2018-05-04T23:02:20.246Z,6.37
2018-05-04T23:04:47.737Z,9.30
2018-05-04T23:07:15.232Z,6.50
2018-05-04T23:09:42.723Z,8.53
2018-05-04T23:12:10.186Z,7.10
2018-05-04T23:14:37.643Z,7.80
2018-05-04T23:17:05.230Z,6.40
2018-05-04T23:19:33.462Z,8.27
2018-05-04T23:22:00.948Z,8.93
2018-05-04T23:24:28.403Z,7.27
2018-05-04T23:26:55.852Z,9.70
2018-05-04T23:29:23.313Z,6.30
2018-05-04T23:31:50.782Z,8.17
2018-05-04T23:34:19.023Z,6.10
2018-05-04T23:36:46.499Z,6.27
2018-05-04T23:39:13.949Z,7.20
2018-05-04T23:41:41.412Z,6.07
2018-05-04T23:44:08.871Z,5.90
2018-05-04T23:46:36.343Z,5.80
2018-05-04T23:49:03.875Z,8.60
2018-05-04T23:51:31.351Z,9.90
2018-05-04T23:53:58.806Z,7.30
2018-05-04T23:56:26.267Z,7.60
2018-05-04T23:58:53.718Z,10.20
